createdAt,value
2022-09-06T00:01:17.133Z,22.20
2022-09-06T00:05:19.143Z,22.20
2022-09-06T00:09:20.709Z,22.08
2022-09-06T00:13:22.375Z,22.01
2022-09-06T00:17:24.077Z,21.93
2022-09-06T00:21:28.313Z,21.93
2022-09-06T00:25:30.653Z,21.98
2022-09-06T00:29:32.618Z,21.98
2022-09-06T00:33:34.202Z,22.01
2022-09-06T00:37:35.768Z,22.01
2022-09-06T00:41:37.381Z,22.06
2022-09-06T00:45:39.454Z,22.05
2022-09-06T00:49:45.325Z,21.99
2022-09-06T00:53:47.044Z,21.94
2022-09-06T00:57:52.234Z,21.99
2022-09-06T01:01:53.894Z,21.96
2022-09-06T01:06:14.103Z,21.93
2022-09-06T01:10:37.477Z,21.93
2022-09-06T01:14:45.400Z,21.82
2022-09-06T01:19:10.781Z,21.77
2022-09-06T01:23:55.106Z,21.71
2022-09-06T01:28:15.154Z,21.16
2022-09-06T01:32:39.072Z,21.48
2022-09-06T01:37:13.469Z,21.81
2022-09-06T01:41:15.100Z,21.93
2022-09-06T01:45:33.027Z,21.99
2022-09-06T01:49:58.112Z,21.96
2022-09-06T01:54:27.513Z,21.99
2022-09-06T01:58:38.894Z,22.08
2022-09-06T02:02:52.858Z,22.12
2022-09-06T02:07:00.791Z,21.99
2022-09-06T02:11:04.713Z,21.94
2022-09-06T02:15:11.590Z,21.90
2022-09-06T02:19:27.893Z,21.79
2022-09-06T02:23:33.828Z,21.74
2022-09-06T02:27:35.764Z,21.81
2022-09-06T02:31:48.534Z,21.79
2022-09-06T02:35:53.062Z,21.77
2022-09-06T02:39:56.074Z,21.79
2022-09-06T02:43:57.829Z,21.67
2022-09-06T02:47:59.531Z,21.53
2022-09-06T02:52:01.138Z,21.53
2022-09-06T02:56:03.088Z,21.59
2022-09-06T03:00:04.993Z,21.56
2022-09-06T03:04:06.631Z,21.52
2022-09-06T03:08:08.253Z,21.46
2022-09-06T03:12:09.860Z,21.45
2022-09-06T03:16:11.516Z,21.43
2022-09-06T03:20:13.672Z,21.37
2022-09-06T03:24:15.230Z,21.27
2022-09-06T03:28:18.388Z,21.22
2022-09-06T03:32:20.069Z,21.13
2022-09-06T03:36:22.280Z,21.08
2022-09-06T03:40:23.919Z,21.11
2022-09-06T03:44:25.560Z,21.08
2022-09-06T03:48:29.788Z,21.08
2022-09-06T03:52:31.449Z,21.06
2022-09-06T03:56:33.058Z,21.08
2022-09-06T04:00:34.788Z,21.06
2022-09-06T04:04:36.426Z,21.00
2022-09-06T04:08:38.558Z,20.90
2022-09-06T04:12:40.128Z,20.87
2022-09-06T04:16:41.762Z,20.88
2022-09-06T04:20:45.935Z,20.85
2022-09-06T04:24:47.537Z,20.78
2022-09-06T04:28:49.194Z,20.75
2022-09-06T04:32:50.820Z,20.60
2022-09-06T04:36:52.392Z,20.56
2022-09-06T04:40:55.553Z,20.42
2022-09-06T04:44:57.167Z,20.31
2022-09-06T04:48:58.831Z,20.26
2022-09-06T04:53:00.384Z,20.26
2022-09-06T04:57:02.267Z,20.22
2022-09-06T05:01:03.950Z,20.20
2022-09-06T05:05:06.223Z,20.20
2022-09-06T05:14:50.629Z,20.20
2022-09-06T05:18:52.195Z,20.20
2022-09-06T05:22:54.367Z,20.20
2022-09-06T05:26:56.018Z,20.22
2022-09-06T05:31:11.918Z,20.23
2022-09-06T05:35:13.680Z,20.30
2022-09-06T05:39:15.237Z,20.31
2022-09-06T05:43:16.878Z,20.35
2022-09-06T05:47:18.530Z,20.38
2022-09-06T05:51:20.287Z,20.41
2022-09-06T05:55:21.861Z,20.46
2022-09-06T05:59:23.421Z,20.48
2022-09-06T06:03:24.996Z,20.46
2022-09-06T06:07:26.598Z,20.48
2022-09-06T06:11:28.533Z,20.51
2022-09-06T06:15:30.126Z,20.57
2022-09-06T06:19:31.714Z,20.57
2022-09-06T06:23:33.273Z,20.63
2022-09-06T06:27:37.049Z,20.69
2022-09-06T06:31:39.130Z,20.75
2022-09-06T06:35:40.840Z,20.82
2022-09-06T06:39:42.496Z,20.88
2022-09-06T06:43:44.269Z,20.98
2022-09-06T06:47:49.989Z,21.15
2022-09-06T06:51:51.616Z,21.24
2022-09-06T06:55:53.431Z,21.31
2022-09-06T06:59:54.998Z,21.40
2022-09-06T07:03:57.202Z,21.49
2022-09-06T07:07:58.801Z,21.55
2022-09-06T07:12:00.432Z,21.63
2022-09-06T07:16:08.665Z,21.66
2022-09-06T07:24:14.477Z,21.74
2022-09-06T07:28:16.077Z,21.79
2022-09-06T07:32:17.692Z,21.85
2022-09-06T07:36:19.620Z,21.89
2022-09-06T07:40:21.294Z,21.91
2022-09-06T07:44:22.935Z,21.96
2022-09-06T07:48:24.458Z,22.01
2022-09-06T07:56:48.595Z,22.12
2022-09-06T08:00:50.354Z,22.33
2022-09-06T08:04:52.003Z,22.52
2022-09-06T08:08:57.638Z,22.57
2022-09-06T08:12:59.769Z,22.56
2022-09-06T08:17:02.078Z,22.45
2022-09-06T08:21:14.992Z,22.41
2022-09-06T08:25:16.540Z,22.51
2022-09-06T08:29:19.910Z,22.61
2022-09-06T08:33:21.978Z,22.70
2022-09-06T08:37:25.207Z,22.79
2022-09-06T08:41:48.683Z,22.91
2022-09-06T08:45:56.304Z,23.06
2022-09-06T08:50:03.407Z,23.16
2022-09-06T08:54:12.017Z,23.21
2022-09-06T08:58:37.190Z,23.26
2022-09-06T09:03:19.886Z,23.21
2022-09-06T09:07:48.049Z,23.34
2022-09-06T09:11:51.292Z,23.50
2022-09-06T09:15:52.936Z,23.67
2022-09-06T09:19:56.382Z,23.78
2022-09-06T09:24:04.734Z,23.89
2022-09-06T09:28:16.069Z,24.00
2022-09-06T09:32:39.190Z,24.09
2022-09-06T09:36:41.231Z,24.21
2022-09-06T09:40:52.137Z,24.36
2022-09-06T09:44:53.901Z,24.46
2022-09-06T09:49:10.550Z,24.56
2022-09-06T09:53:17.943Z,24.63
2022-09-06T09:57:19.831Z,24.71
2022-09-06T10:01:32.989Z,24.83
2022-09-06T10:05:34.767Z,24.94
2022-09-06T10:09:39.596Z,25.02
2022-09-06T10:13:44.586Z,25.14
2022-09-06T10:17:51.378Z,25.29
2022-09-06T10:21:59.854Z,25.31
2022-09-06T10:26:20.054Z,25.34
2022-09-06T10:30:22.430Z,25.49
2022-09-06T10:34:54.462Z,25.64
2022-09-06T10:39:04.251Z,25.83
2022-09-06T10:43:09.272Z,25.97
2022-09-06T10:47:13.563Z,26.08
2022-09-06T10:51:38.712Z,26.20
2022-09-06T10:55:43.582Z,26.35
2022-09-06T10:59:56.630Z,26.41
2022-09-06T11:04:04.430Z,26.53
2022-09-06T11:13:03.162Z,26.78
2022-09-06T11:17:26.357Z,26.88
2022-09-06T11:22:12.834Z,27.01
2022-09-06T11:26:31.542Z,27.11
2022-09-06T11:30:33.702Z,27.24
2022-09-06T11:34:36.263Z,27.34
2022-09-06T11:38:37.871Z,27.50
2022-09-06T11:42:45.645Z,27.58
2022-09-06T11:46:48.410Z,27.71
2022-09-06T11:50:59.072Z,27.84
2022-09-06T11:55:00.803Z,27.93
2022-09-06T11:59:34.750Z,28.11
2022-09-06T12:04:05.178Z,28.25
2022-09-06T12:08:11.035Z,28.45
2022-09-06T12:12:38.410Z,28.61
2022-09-06T12:16:58.944Z,28.74
2022-09-06T12:21:01.541Z,28.88
2022-09-06T12:25:42.049Z,28.97
2022-09-06T12:29:54.552Z,29.12
2022-09-06T12:33:58.020Z,29.30
2022-09-06T12:38:01.958Z,29.47
2022-09-06T12:42:11.817Z,29.57
2022-09-06T12:46:13.539Z,29.70
2022-09-06T12:50:18.287Z,29.88
2022-09-06T12:54:26.197Z,30.15
2022-09-06T12:58:28.899Z,30.40
2022-09-06T13:02:39.023Z,30.68
2022-09-06T13:06:45.752Z,31.05
2022-09-06T13:10:48.084Z,31.42
2022-09-06T13:14:53.801Z,31.09
2022-09-06T13:19:10.046Z,31.04
2022-09-06T13:23:19.809Z,31.28
2022-09-06T13:27:27.606Z,31.30
2022-09-06T13:31:30.005Z,31.46
2022-09-06T13:35:37.844Z,31.72
2022-09-06T13:39:41.677Z,32.02
2022-09-06T13:43:45.756Z,32.24
2022-09-06T13:47:47.383Z,32.35
2022-09-06T13:51:49.545Z,32.51
2022-09-06T13:55:52.660Z,32.24
2022-09-06T13:59:54.192Z,32.41
2022-09-06T14:03:55.797Z,32.50
2022-09-06T14:07:57.565Z,32.66
2022-09-06T14:11:59.344Z,32.81
2022-09-06T14:16:01.288Z,32.90
2022-09-06T14:20:03.551Z,33.00
2022-09-06T14:24:05.566Z,33.18
2022-09-06T14:28:07.167Z,33.28
2022-09-06T14:32:08.835Z,33.31
2022-09-06T14:36:13.389Z,33.38
2022-09-06T14:40:15.656Z,33.34
2022-09-06T14:44:17.325Z,33.52
2022-09-06T14:48:19.014Z,33.35
2022-09-06T14:52:20.703Z,33.00
2022-09-06T14:56:22.995Z,32.80
2022-09-06T15:00:24.638Z,32.76
2022-09-06T15:04:26.441Z,32.87
2022-09-06T15:08:28.137Z,32.99
2022-09-06T15:12:29.731Z,33.02
2022-09-06T15:16:32.612Z,32.40
2022-09-06T15:20:34.953Z,31.95
2022-09-06T15:24:36.764Z,31.67
2022-09-06T15:28:39.891Z,31.10
2022-09-06T15:32:42.876Z,30.53
2022-09-06T15:36:44.621Z,30.07
2022-09-06T15:40:46.237Z,29.97
2022-09-06T15:44:47.801Z,29.84
2022-09-06T15:48:52.291Z,30.06
2022-09-06T15:52:53.863Z,30.23
2022-09-06T15:56:58.042Z,30.04
2022-09-06T16:01:12.383Z,29.85
2022-09-06T16:05:14.720Z,29.63
2022-09-06T16:09:18.192Z,29.44
2022-09-06T16:13:19.788Z,29.41
2022-09-06T16:17:21.882Z,29.26
2022-09-06T16:21:25.933Z,29.23
2022-09-06T16:25:28.194Z,29.05
2022-09-06T16:29:30.096Z,29.00
2022-09-06T16:33:33.658Z,29.11
2022-09-06T16:37:36.061Z,29.17
2022-09-06T16:41:40.743Z,29.26
2022-09-06T16:45:42.581Z,29.20
2022-09-06T16:49:44.315Z,29.17
2022-09-06T16:53:47.560Z,29.08
2022-09-06T16:57:49.324Z,29.10
2022-09-06T17:01:51.600Z,29.03
2022-09-06T17:05:53.940Z,28.74
2022-09-06T17:09:55.552Z,28.51
2022-09-06T17:13:57.746Z,28.30
2022-09-06T17:17:59.353Z,28.17
2022-09-06T17:22:00.923Z,28.02
2022-09-06T17:26:04.117Z,27.91
2022-09-06T17:30:06.237Z,27.81
2022-09-06T17:34:08.051Z,27.69
2022-09-06T17:38:10.123Z,27.58
2022-09-06T17:42:11.745Z,27.49
2022-09-06T17:46:13.429Z,27.42
2022-09-06T17:50:15.305Z,27.30
2022-09-06T17:54:17.131Z,27.21
2022-09-06T17:58:20.001Z,27.12
2022-09-06T18:02:21.659Z,27.02
2022-09-06T18:06:25.359Z,26.93
2022-09-06T18:10:26.963Z,26.87
2022-09-06T18:14:28.715Z,26.75
2022-09-06T18:18:32.644Z,26.64
2022-09-06T18:22:34.307Z,26.49
2022-09-06T18:26:37.305Z,26.35
2022-09-06T18:30:39.021Z,26.27
2022-09-06T18:34:40.944Z,26.17
2022-09-06T18:38:43.374Z,26.12
2022-09-06T18:42:45.033Z,26.01
2022-09-06T18:46:46.854Z,25.96
2022-09-06T18:50:48.458Z,25.89
2022-09-06T18:54:50.127Z,25.76
2022-09-06T18:59:00.943Z,25.67
2022-09-06T19:03:02.659Z,25.53
2022-09-06T19:07:04.289Z,25.42
2022-09-06T19:11:09.127Z,25.39
2022-09-06T19:15:11.052Z,25.41
2022-09-06T19:19:13.395Z,25.39
2022-09-06T19:23:15.694Z,25.42
2022-09-06T19:27:17.349Z,25.42
2022-09-06T19:31:19.507Z,25.41
2022-09-06T19:35:21.773Z,25.39
2022-09-06T19:39:23.448Z,25.36
2022-09-06T19:43:25.142Z,25.35
2022-09-06T19:47:26.768Z,25.30
2022-09-06T19:51:28.429Z,25.27
2022-09-06T19:55:34.207Z,25.20
2022-09-06T19:59:36.625Z,25.17
2022-09-06T20:03:39.394Z,25.12
2022-09-06T20:07:41.038Z,25.08
2022-09-06T20:11:43.302Z,25.05
2022-09-06T20:15:44.890Z,25.02
2022-09-06T20:19:46.525Z,24.99
2022-09-06T20:23:55.871Z,24.92
2022-09-06T20:27:58.554Z,24.89
2022-09-06T20:32:00.274Z,24.74
2022-09-06T20:36:07.149Z,24.61
2022-09-06T20:40:09.432Z,24.46
2022-09-06T20:44:11.110Z,24.34
2022-09-06T20:48:12.714Z,24.31
2022-09-06T20:52:14.557Z,24.27
2022-09-06T20:56:19.276Z,24.23
2022-09-06T21:00:20.938Z,24.16
2022-09-06T21:04:22.604Z,24.11
2022-09-06T21:08:24.279Z,23.97
2022-09-06T21:12:25.931Z,23.89
2022-09-06T21:16:29.152Z,23.75
2022-09-06T21:20:31.077Z,23.77
2022-09-06T21:24:33.891Z,23.78
2022-09-06T21:28:37.809Z,23.78
2022-09-06T21:32:39.467Z,23.72
2022-09-06T21:36:41.327Z,23.69
2022-09-06T21:40:43.333Z,23.57
2022-09-06T21:44:45.043Z,23.54
2022-09-06T21:48:48.873Z,23.31
2022-09-06T21:52:52.305Z,23.45
2022-09-06T21:56:54.627Z,23.42
2022-09-06T22:01:00.558Z,23.32
2022-09-06T22:05:06.388Z,23.32
2022-09-06T22:09:11.675Z,23.35
2022-09-06T22:13:13.333Z,23.37
2022-09-06T22:17:14.949Z,23.29
2022-09-06T22:21:20.108Z,23.25
2022-09-06T22:25:21.740Z,23.22
2022-09-06T22:29:23.442Z,23.23
2022-09-06T22:33:25.336Z,23.25
2022-09-06T22:37:26.938Z,23.29
2022-09-06T22:41:30.965Z,23.25
2022-09-06T22:45:33.033Z,23.26
2022-09-06T22:49:34.656Z,23.31
2022-09-06T22:53:36.250Z,23.26
2022-09-06T22:57:37.828Z,23.22
2022-09-06T23:01:39.408Z,23.16
2022-09-06T23:05:41.098Z,23.18
2022-09-06T23:09:42.731Z,23.12
2022-09-06T23:13:47.023Z,23.11
2022-09-06T23:17:48.703Z,23.09
2022-09-06T23:21:50.325Z,23.04
2022-09-06T23:25:53.520Z,23.00
2022-09-06T23:29:55.120Z,22.96
2022-09-06T23:33:58.057Z,22.93
2022-09-06T23:37:59.740Z,22.96
2022-09-06T23:42:02.343Z,22.91
2022-09-06T23:46:04.003Z,22.88
2022-09-06T23:50:07.203Z,22.94
2022-09-06T23:54:08.822Z,22.96
2022-09-06T23:58:11.163Z,22.99
